Airport Metar Information

LTBA 280820Z 03012KT 350V070 9999 SCT030 SCT180 23/15 Q1018 NOSIG

VATSIM Livefeed

Card image cap

ATC Bookings

No position booked

Card image cap

Active ATC

No controllers online

Blog

Read our latest news and get to know us better.